createdAt,value
2023-05-21T00:02:19.934Z,16.50
2023-05-21T00:04:47.145Z,16.50
2023-05-21T00:07:15.196Z,16.48
2023-05-21T00:09:41.715Z,16.46
2023-05-21T00:12:09.229Z,16.45
2023-05-21T00:14:35.948Z,16.44
2023-05-21T00:17:02.459Z,16.41
2023-05-21T00:19:28.963Z,16.40
2023-05-21T00:21:55.989Z,16.34
2023-05-21T00:24:22.740Z,16.34
2023-05-21T00:26:49.279Z,16.32
2023-05-21T00:29:16.196Z,16.30
2023-05-21T00:31:42.740Z,16.30
2023-05-21T00:34:09.283Z,16.26
2023-05-21T00:36:35.728Z,16.26
2023-05-21T00:39:02.457Z,16.24
2023-05-21T00:41:30.188Z,16.21
2023-05-21T00:44:00.119Z,16.20
2023-05-21T00:46:28.539Z,16.17
2023-05-21T00:48:57.957Z,16.15
2023-05-21T00:51:25.806Z,16.12
2023-05-21T00:53:52.984Z,16.07
2023-05-21T00:56:22.610Z,16.05
2023-05-21T00:58:52.773Z,16.02
2023-05-21T01:01:19.489Z,16.04
2023-05-21T01:03:48.761Z,16.03
2023-05-21T01:06:16.029Z,16.02
2023-05-21T01:08:42.702Z,16.02
2023-05-21T01:11:10.587Z,16.00
2023-05-21T01:13:40.190Z,15.98
2023-05-21T01:16:08.895Z,15.92
2023-05-21T01:18:37.799Z,15.96
2023-05-21T01:21:05.380Z,15.93
2023-05-21T01:23:32.028Z,15.91
2023-05-21T01:25:58.723Z,15.91
2023-05-21T01:28:25.285Z,15.82
2023-05-21T01:30:52.041Z,15.86
2023-05-21T01:33:29.547Z,15.87
2023-05-21T01:36:34.473Z,15.81
2023-05-21T01:39:14.412Z,15.83
2023-05-21T01:41:44.841Z,15.81
2023-05-21T01:44:12.569Z,15.79
2023-05-21T01:46:39.892Z,15.77
2023-05-21T01:49:07.948Z,15.73
2023-05-21T01:51:35.223Z,15.68
2023-05-21T01:54:02.579Z,15.72
2023-05-21T01:56:29.099Z,15.71
2023-05-21T01:58:59.354Z,15.68
2023-05-21T02:01:26.908Z,15.67
2023-05-21T02:03:53.648Z,15.66
2023-05-21T02:06:20.239Z,15.60
2023-05-21T02:08:48.293Z,15.63
2023-05-21T02:11:14.862Z,15.59
2023-05-21T02:13:42.835Z,15.59
2023-05-21T02:16:14.733Z,15.57
2023-05-21T02:18:43.538Z,15.57
2023-05-21T02:21:11.409Z,15.52
2023-05-21T02:23:38.726Z,15.54
2023-05-21T02:26:05.420Z,15.51
2023-05-21T02:28:32.775Z,15.50
2023-05-21T02:30:59.429Z,15.49
2023-05-21T02:33:26.100Z,15.45
2023-05-21T02:35:52.593Z,15.43
2023-05-21T02:38:23.150Z,15.45
2023-05-21T02:40:53.400Z,15.40
2023-05-21T02:43:20.137Z,15.40
2023-05-21T02:45:46.655Z,15.39
2023-05-21T02:48:14.241Z,15.38
2023-05-21T02:50:41.732Z,15.36
2023-05-21T02:53:08.421Z,15.33
2023-05-21T02:55:36.097Z,15.31
2023-05-21T02:58:02.809Z,15.27
2023-05-21T03:00:29.315Z,15.24
2023-05-21T03:02:55.996Z,15.24
2023-05-21T03:05:22.619Z,15.20
2023-05-21T03:07:50.130Z,15.16
2023-05-21T03:10:16.826Z,15.16
2023-05-21T03:12:43.273Z,15.14
2023-05-21T03:15:11.751Z,15.07
2023-05-21T03:17:38.295Z,15.09
2023-05-21T03:20:05.519Z,15.06
2023-05-21T03:22:32.365Z,15.04
2023-05-21T03:25:00.227Z,15.05
2023-05-21T03:27:26.978Z,15.00
2023-05-21T03:29:55.819Z,14.98
2023-05-21T03:32:22.887Z,14.95
2023-05-21T03:34:49.988Z,14.98
2023-05-21T03:37:18.111Z,14.95
2023-05-21T03:39:44.631Z,14.93
2023-05-21T03:42:11.118Z,14.92
2023-05-21T03:44:43.757Z,14.90
2023-05-21T03:47:31.194Z,14.88
2023-05-21T03:49:59.012Z,14.84
2023-05-21T03:52:26.526Z,14.86
2023-05-21T03:54:53.197Z,14.85
2023-05-21T03:57:19.768Z,14.85
2023-05-21T03:59:47.788Z,14.84
2023-05-21T04:02:14.687Z,14.82
2023-05-21T04:04:41.583Z,14.79
2023-05-21T04:07:14.279Z,14.80
2023-05-21T04:09:41.959Z,14.77
2023-05-21T04:12:08.559Z,14.76
2023-05-21T04:14:37.601Z,14.77
2023-05-21T04:17:05.286Z,14.74
2023-05-21T04:19:33.102Z,14.75
2023-05-21T04:22:00.979Z,14.74
2023-05-21T04:24:27.571Z,14.74
2023-05-21T04:27:14.125Z,14.73
2023-05-21T04:29:43.622Z,14.71
2023-05-21T04:32:11.629Z,14.74
2023-05-21T04:34:39.583Z,14.73
2023-05-21T04:37:06.821Z,14.73
2023-05-21T04:39:34.640Z,14.75
2023-05-21T04:42:02.112Z,14.76
2023-05-21T04:44:29.473Z,14.76
2023-05-21T04:46:58.730Z,14.78
2023-05-21T04:49:25.585Z,14.79
2023-05-21T04:51:52.246Z,14.80
2023-05-21T04:54:18.761Z,14.81
2023-05-21T04:56:45.317Z,14.82
2023-05-21T04:59:11.846Z,14.80
2023-05-21T05:01:38.643Z,14.83
2023-05-21T05:04:05.908Z,14.83
2023-05-21T05:06:32.718Z,14.84
2023-05-21T05:08:59.288Z,14.83
2023-05-21T05:11:26.564Z,14.87
2023-05-21T05:13:53.256Z,14.88
2023-05-21T05:16:25.197Z,14.88
2023-05-21T05:18:53.051Z,14.89
2023-05-21T05:21:22.389Z,14.91
2023-05-21T05:23:48.994Z,14.89
2023-05-21T05:26:15.939Z,14.92
2023-05-21T05:28:42.460Z,14.92
2023-05-21T05:31:09.073Z,14.95
2023-05-21T05:33:35.896Z,14.95
2023-05-21T05:36:03.007Z,15.00
2023-05-21T05:38:29.728Z,14.96
2023-05-21T05:40:56.330Z,15.01
2023-05-21T05:43:24.514Z,15.04
2023-05-21T05:45:51.496Z,15.05
2023-05-21T05:48:19.185Z,15.08
2023-05-21T05:50:46.481Z,15.09
2023-05-21T05:53:14.557Z,15.13
2023-05-21T05:55:41.399Z,15.12
2023-05-21T05:58:07.965Z,15.16
2023-05-21T06:00:47.470Z,15.19
2023-05-21T06:03:14.165Z,15.22
2023-05-21T06:05:42.218Z,15.25
2023-05-21T06:08:08.741Z,15.29
2023-05-21T06:10:35.241Z,15.32
2023-05-21T06:13:03.643Z,15.36
2023-05-21T06:15:30.308Z,15.40
2023-05-21T06:17:56.941Z,15.44
2023-05-21T06:20:23.521Z,15.47
2023-05-21T06:22:50.078Z,15.49
2023-05-21T06:25:16.565Z,15.55
2023-05-21T06:27:43.058Z,15.59
2023-05-21T06:30:17.464Z,15.64
2023-05-21T06:32:44.284Z,15.65
2023-05-21T06:35:10.910Z,15.72
2023-05-21T06:37:37.414Z,15.75
2023-05-21T06:40:05.390Z,15.80
2023-05-21T06:42:32.360Z,15.83
2023-05-21T06:45:30.658Z,15.89
2023-05-21T06:48:01.237Z,15.94
2023-05-21T06:50:27.902Z,15.95
2023-05-21T06:52:54.469Z,16.03
2023-05-21T06:55:21.283Z,16.07
2023-05-21T06:58:14.048Z,16.12
2023-05-21T07:00:40.871Z,16.15
2023-05-21T07:03:07.430Z,16.16
2023-05-21T07:05:34.219Z,16.24
2023-05-21T07:08:00.751Z,16.30
2023-05-21T07:10:27.363Z,16.34
2023-05-21T07:12:53.816Z,16.39
2023-05-21T07:15:20.736Z,16.45
2023-05-21T07:17:47.299Z,16.47
2023-05-21T07:20:14.732Z,16.52
2023-05-21T07:22:44.346Z,16.57
2023-05-21T07:25:12.267Z,16.63
2023-05-21T07:27:38.761Z,16.69
2023-05-21T07:30:05.897Z,16.73
2023-05-21T07:32:32.585Z,16.74
2023-05-21T07:35:03.443Z,16.83
2023-05-21T07:37:31.253Z,16.86
2023-05-21T07:40:01.292Z,16.91
2023-05-21T07:42:31.064Z,16.96
2023-05-21T07:44:58.020Z,17.00
2023-05-21T07:47:26.607Z,17.04
2023-05-21T07:49:53.237Z,17.10
2023-05-21T07:52:20.743Z,17.15
2023-05-21T07:54:47.386Z,17.20
2023-05-21T07:57:13.963Z,17.26
2023-05-21T07:59:54.178Z,17.34
2023-05-21T08:02:21.514Z,17.35
2023-05-21T08:04:48.218Z,17.42
2023-05-21T08:07:16.952Z,17.44
2023-05-21T08:09:43.837Z,17.52
2023-05-21T08:12:14.328Z,17.56
2023-05-21T08:14:41.468Z,17.58
2023-05-21T08:17:12.010Z,17.66
2023-05-21T08:19:38.796Z,17.70
2023-05-21T08:22:08.773Z,17.74
2023-05-21T08:24:38.112Z,17.78
2023-05-21T08:27:05.172Z,17.79
2023-05-21T08:29:33.039Z,17.83
2023-05-21T08:31:59.615Z,17.85
2023-05-21T08:34:26.571Z,17.93
2023-05-21T08:37:04.737Z,17.98
2023-05-21T08:39:51.185Z,18.04
2023-05-21T08:42:36.846Z,18.07
2023-05-21T08:45:06.832Z,18.13
2023-05-21T08:47:36.180Z,18.18
2023-05-21T08:50:08.538Z,18.22
2023-05-21T08:52:35.379Z,18.27
2023-05-21T08:55:04.457Z,18.33
2023-05-21T08:57:32.115Z,18.39
2023-05-21T08:59:59.962Z,18.45
2023-05-21T09:02:30.532Z,18.49
2023-05-21T09:04:58.928Z,18.52
2023-05-21T09:07:29.719Z,18.58
2023-05-21T09:10:12.573Z,18.63
2023-05-21T09:12:39.964Z,18.69
2023-05-21T09:15:07.489Z,18.72
2023-05-21T09:17:36.838Z,18.78
2023-05-21T09:20:25.791Z,18.80
2023-05-21T09:22:57.356Z,18.86
2023-05-21T09:25:28.061Z,18.87
2023-05-21T09:27:59.156Z,18.95
2023-05-21T09:30:29.720Z,19.01
2023-05-21T09:32:59.636Z,19.08
2023-05-21T09:35:26.827Z,19.13
2023-05-21T09:37:53.882Z,19.18
2023-05-21T09:40:21.849Z,19.23
2023-05-21T09:42:51.600Z,19.28
2023-05-21T09:45:25.478Z,19.36
2023-05-21T09:47:56.142Z,19.40
2023-05-21T09:50:24.791Z,19.46
2023-05-21T09:52:52.969Z,19.49
2023-05-21T09:55:23.209Z,19.56
2023-05-21T09:57:51.967Z,19.62
2023-05-21T10:00:27.254Z,19.67
2023-05-21T10:02:55.360Z,19.73
2023-05-21T10:05:28.258Z,19.76
2023-05-21T10:08:02.064Z,19.82
2023-05-21T10:10:29.904Z,19.85
2023-05-21T10:13:00.665Z,19.90
2023-05-21T10:15:31.397Z,19.95
2023-05-21T10:17:59.611Z,19.97
2023-05-21T10:20:26.524Z,20.02
2023-05-21T10:22:53.120Z,20.07
2023-05-21T10:25:20.743Z,20.13
2023-05-21T10:27:48.169Z,20.17
2023-05-21T10:30:15.589Z,20.18
2023-05-21T10:32:42.698Z,20.22
2023-05-21T10:35:09.887Z,20.31
2023-05-21T10:37:36.772Z,20.33
2023-05-21T10:40:04.437Z,20.42
2023-05-21T10:42:30.892Z,20.48
2023-05-21T10:45:28.582Z,20.52
2023-05-21T10:48:16.969Z,20.56
2023-05-21T10:50:52.278Z,20.65
2023-05-21T10:53:21.670Z,20.71
2023-05-21T10:56:10.547Z,20.75
2023-05-21T10:58:46.477Z,20.82
2023-05-21T11:01:14.072Z,20.86
2023-05-21T11:03:41.011Z,20.92
2023-05-21T11:06:08.428Z,20.99
2023-05-21T11:08:36.125Z,21.03
2023-05-21T11:11:03.821Z,21.05
2023-05-21T11:13:49.516Z,21.09
2023-05-21T11:16:17.631Z,21.15
2023-05-21T11:18:47.216Z,21.19
2023-05-21T11:21:17.976Z,21.21
2023-05-21T11:24:01.303Z,21.24
2023-05-21T11:26:30.346Z,21.30
2023-05-21T11:29:07.789Z,21.31
2023-05-21T11:31:41.225Z,21.36
2023-05-21T11:34:29.951Z,21.37
2023-05-21T11:37:18.335Z,21.40
2023-05-21T11:39:45.381Z,21.44
2023-05-21T11:42:11.946Z,21.46
2023-05-21T11:44:46.974Z,21.52
2023-05-21T11:47:15.360Z,21.56
2023-05-21T11:49:42.492Z,21.61
2023-05-21T11:52:10.919Z,21.65
2023-05-21T11:54:50.468Z,21.69
2023-05-21T11:57:21.077Z,21.74
2023-05-21T11:59:53.388Z,21.78
2023-05-21T12:02:21.501Z,21.81
2023-05-21T12:04:50.206Z,21.86
2023-05-21T12:07:19.065Z,21.93
2023-05-21T12:09:48.092Z,21.98
2023-05-21T12:12:17.161Z,22.02
2023-05-21T12:14:48.987Z,22.08
2023-05-21T12:17:17.218Z,22.12
2023-05-21T12:19:45.209Z,22.16
2023-05-21T12:22:11.969Z,22.19
2023-05-21T12:24:38.879Z,22.24
2023-05-21T12:27:10.278Z,22.28
2023-05-21T12:29:38.575Z,22.31
2023-05-21T12:32:07.351Z,22.36
2023-05-21T12:34:54.603Z,22.37
2023-05-21T12:37:24.337Z,22.43
2023-05-21T12:39:55.782Z,22.49
2023-05-21T12:42:35.817Z,22.52
2023-05-21T12:45:09.600Z,22.55
2023-05-21T12:47:36.478Z,22.63
2023-05-21T12:50:07.891Z,22.66
2023-05-21T12:52:34.382Z,22.73
2023-05-21T12:55:00.952Z,22.76
2023-05-21T12:57:35.267Z,22.80
2023-05-21T13:00:04.406Z,22.80
2023-05-21T13:02:41.163Z,22.85
2023-05-21T13:05:09.676Z,22.90
2023-05-21T13:07:38.097Z,22.91
2023-05-21T13:10:06.141Z,22.93
2023-05-21T13:12:34.089Z,22.99
2023-05-21T13:15:02.651Z,22.98
2023-05-21T13:17:29.883Z,23.06
2023-05-21T13:20:12.293Z,23.07
2023-05-21T13:22:46.416Z,23.11
2023-05-21T13:25:20.216Z,23.15
2023-05-21T13:27:48.027Z,23.17
2023-05-21T13:30:14.792Z,23.19
2023-05-21T13:32:42.239Z,23.22
2023-05-21T13:35:12.553Z,23.28
2023-05-21T13:37:40.194Z,23.32
2023-05-21T13:40:11.211Z,23.35
2023-05-21T13:42:41.114Z,23.37
2023-05-21T13:45:09.287Z,23.41
2023-05-21T13:47:39.121Z,23.44
2023-05-21T13:50:07.268Z,23.45
2023-05-21T13:52:33.777Z,23.52
2023-05-21T13:55:00.373Z,23.56
2023-05-21T13:57:27.132Z,23.60
2023-05-21T13:59:53.782Z,23.62
2023-05-21T14:02:20.327Z,23.66
2023-05-21T14:04:46.856Z,23.69
2023-05-21T14:07:13.361Z,23.72
2023-05-21T14:09:40.004Z,23.76
2023-05-21T14:12:07.448Z,23.80
2023-05-21T14:14:34.049Z,23.82
2023-05-21T14:17:00.692Z,23.87
2023-05-21T14:19:27.334Z,23.88
2023-05-21T14:21:54.292Z,23.92
2023-05-21T14:24:20.751Z,23.95
2023-05-21T14:26:47.261Z,23.98
2023-05-21T14:29:14.218Z,24.02
2023-05-21T14:31:40.800Z,24.06
2023-05-21T14:34:08.702Z,24.09
2023-05-21T14:36:36.271Z,24.13
2023-05-21T14:39:02.820Z,24.14
2023-05-21T14:41:29.742Z,24.20
2023-05-21T14:43:56.202Z,24.23
2023-05-21T14:46:22.810Z,24.24
2023-05-21T14:48:49.490Z,24.28
2023-05-21T14:51:16.500Z,24.29
2023-05-21T14:53:42.966Z,24.32
2023-05-21T14:56:09.484Z,24.33
2023-05-21T14:58:36.032Z,24.37
2023-05-21T15:01:04.392Z,24.39
2023-05-21T15:03:31.162Z,24.41
2023-05-21T15:05:58.511Z,24.43
2023-05-21T15:08:25.252Z,24.44
2023-05-21T15:10:51.713Z,24.49
2023-05-21T15:13:18.184Z,24.50
2023-05-21T15:15:44.853Z,24.55
2023-05-21T15:18:11.630Z,24.57
2023-05-21T15:20:38.155Z,24.63
2023-05-21T15:23:16.245Z,24.64
2023-05-21T15:25:44.539Z,24.69
2023-05-21T15:28:12.084Z,24.71
2023-05-21T15:30:38.838Z,24.77
2023-05-21T15:33:05.301Z,24.81
2023-05-21T15:35:31.853Z,24.83
2023-05-21T15:37:58.413Z,24.83
2023-05-21T15:40:26.881Z,24.85
2023-05-21T15:42:53.796Z,24.91
2023-05-21T15:45:20.583Z,24.94
2023-05-21T15:47:47.175Z,24.96
2023-05-21T15:50:13.765Z,24.97
2023-05-21T15:52:41.368Z,24.99
2023-05-21T15:55:08.187Z,24.99
2023-05-21T15:57:34.848Z,25.01
2023-05-21T16:00:01.303Z,25.00
2023-05-21T16:02:27.928Z,25.05
2023-05-21T16:04:54.681Z,25.08
2023-05-21T16:07:23.230Z,25.09
2023-05-21T16:09:49.713Z,25.07
2023-05-21T16:12:16.332Z,25.10
2023-05-21T16:14:42.784Z,25.11
2023-05-21T16:17:09.427Z,25.12
2023-05-21T16:19:36.417Z,25.14
2023-05-21T16:22:02.963Z,25.19
2023-05-21T16:24:29.435Z,25.19
2023-05-21T16:26:55.964Z,25.19
2023-05-21T16:29:22.478Z,25.21
2023-05-21T16:31:49.148Z,25.24
2023-05-21T16:34:15.781Z,25.30
2023-05-21T16:36:42.563Z,25.30
2023-05-21T16:39:09.185Z,25.33
2023-05-21T16:41:35.852Z,25.35
2023-05-21T16:44:02.408Z,25.33
2023-05-21T16:46:28.938Z,25.38
2023-05-21T16:48:55.527Z,25.38
2023-05-21T16:51:22.207Z,25.40
2023-05-21T16:53:48.841Z,25.41
2023-05-21T16:56:15.441Z,25.41
2023-05-21T16:58:41.921Z,25.39
2023-05-21T17:01:08.410Z,25.40
2023-05-21T17:03:35.092Z,25.39
2023-05-21T17:06:01.574Z,25.43
2023-05-21T17:08:28.063Z,25.43
2023-05-21T17:10:55.385Z,25.44
2023-05-21T17:13:23.021Z,25.42
2023-05-21T17:15:53.443Z,25.41
2023-05-21T17:18:20.049Z,25.41
2023-05-21T17:20:46.570Z,25.40
2023-05-21T17:23:13.299Z,25.42
2023-05-21T17:25:40.819Z,25.38
2023-05-21T17:28:07.615Z,25.38
2023-05-21T17:30:34.174Z,25.39
2023-05-21T17:33:02.174Z,25.37
2023-05-21T17:35:28.839Z,25.36
2023-05-21T17:37:55.354Z,25.36
2023-05-21T17:40:24.194Z,25.35
2023-05-21T17:42:54.231Z,25.32
2023-05-21T17:45:20.838Z,25.33
2023-05-21T17:47:47.371Z,25.32
2023-05-21T17:50:13.899Z,25.29
2023-05-21T17:52:40.382Z,25.29
2023-05-21T17:55:07.781Z,25.28
2023-05-21T17:57:35.726Z,25.26
2023-05-21T18:00:04.269Z,25.25
2023-05-21T18:02:38.410Z,25.24
2023-05-21T18:05:05.413Z,25.22
2023-05-21T18:07:32.065Z,25.22
2023-05-21T18:09:58.524Z,25.21
2023-05-21T18:12:24.995Z,25.19
2023-05-21T18:14:51.492Z,25.18
2023-05-21T18:17:17.986Z,25.15
2023-05-21T18:19:44.466Z,25.14
2023-05-21T18:22:11.086Z,25.14
2023-05-21T18:24:39.614Z,25.11
2023-05-21T18:27:06.201Z,25.10
2023-05-21T18:29:32.673Z,25.07
2023-05-21T18:31:59.479Z,25.07
2023-05-21T18:34:26.004Z,25.05
2023-05-21T18:36:54.521Z,25.03
2023-05-21T18:39:24.520Z,25.03
2023-05-21T18:41:55.759Z,25.01
2023-05-21T18:44:29.650Z,24.99
2023-05-21T18:46:57.748Z,24.97
2023-05-21T18:49:24.472Z,24.96
2023-05-21T18:51:51.151Z,24.94
2023-05-21T18:54:17.930Z,24.89
2023-05-21T18:56:44.407Z,24.87
2023-05-21T18:59:10.842Z,24.88
2023-05-21T19:01:37.336Z,24.85
2023-05-21T19:04:03.851Z,24.83
2023-05-21T19:06:31.308Z,24.83
2023-05-21T19:08:57.748Z,24.78
2023-05-21T19:11:27.436Z,24.75
2023-05-21T19:13:53.986Z,24.74
2023-05-21T19:16:20.577Z,24.70
2023-05-21T19:18:47.231Z,24.67
2023-05-21T19:21:13.769Z,24.65
2023-05-21T19:23:51.828Z,24.63
2023-05-21T19:26:21.332Z,24.61
2023-05-21T19:28:52.702Z,24.57
2023-05-21T19:31:20.057Z,24.54
2023-05-21T19:33:46.706Z,24.53
2023-05-21T19:36:13.223Z,24.51
2023-05-21T19:38:46.665Z,24.48
2023-05-21T19:41:13.124Z,24.42
2023-05-21T19:43:39.812Z,24.40
2023-05-21T19:46:06.374Z,24.39
2023-05-21T19:48:32.849Z,24.35
2023-05-21T19:50:59.386Z,24.33
2023-05-21T19:53:26.127Z,24.31
2023-05-21T19:55:52.612Z,24.27
2023-05-21T19:58:23.440Z,24.28
2023-05-21T20:00:55.600Z,24.25
2023-05-21T20:03:22.070Z,24.21
2023-05-21T20:05:48.695Z,24.19
2023-05-21T20:08:16.377Z,24.17
2023-05-21T20:10:42.898Z,24.13
2023-05-21T20:13:09.363Z,24.09
2023-05-21T20:15:36.141Z,24.07
2023-05-21T20:18:02.698Z,24.06
2023-05-21T20:20:29.476Z,24.01
2023-05-21T20:23:03.141Z,23.97
2023-05-21T20:25:30.163Z,23.96
2023-05-21T20:27:57.593Z,23.94
2023-05-21T20:30:27.494Z,23.92
2023-05-21T20:32:54.020Z,23.88
2023-05-21T20:35:20.502Z,23.89
2023-05-21T20:37:46.963Z,23.85
2023-05-21T20:40:14.872Z,23.83
2023-05-21T20:42:44.812Z,23.80
2023-05-21T20:45:12.894Z,23.79
2023-05-21T20:47:39.425Z,23.76
2023-05-21T20:50:06.384Z,23.75
2023-05-21T20:52:32.831Z,23.73
2023-05-21T20:54:59.611Z,23.70
2023-05-21T20:57:27.356Z,23.66
2023-05-21T20:59:56.161Z,23.65
2023-05-21T21:02:23.230Z,23.63
2023-05-21T21:04:50.618Z,23.61
2023-05-21T21:07:20.844Z,23.59
2023-05-21T21:09:48.644Z,23.58
2023-05-21T21:12:26.190Z,23.55
2023-05-21T21:14:53.770Z,23.52
2023-05-21T21:17:20.611Z,23.49
2023-05-21T21:19:47.196Z,23.45
2023-05-21T21:22:15.337Z,23.46
2023-05-21T21:24:41.800Z,23.43
2023-05-21T21:27:08.326Z,23.42
2023-05-21T21:29:34.857Z,23.39
2023-05-21T21:32:01.372Z,23.37
2023-05-21T21:34:27.861Z,23.37
2023-05-21T21:36:54.328Z,23.32
2023-05-21T21:39:21.190Z,23.33
2023-05-21T21:41:47.689Z,23.28
2023-05-21T21:44:14.233Z,23.27
2023-05-21T21:46:40.954Z,23.23
2023-05-21T21:49:07.442Z,23.20
2023-05-21T21:51:34.108Z,23.21
2023-05-21T21:54:00.705Z,23.17
2023-05-21T21:56:27.181Z,23.16
2023-05-21T21:58:53.637Z,23.14
2023-05-21T22:01:20.273Z,23.11
2023-05-21T22:03:46.819Z,23.09
2023-05-21T22:06:13.306Z,23.07
2023-05-21T22:08:39.726Z,23.07
2023-05-21T22:11:06.536Z,23.02
2023-05-21T22:13:34.258Z,23.01
2023-05-21T22:16:01.934Z,23.01
2023-05-21T22:18:40.207Z,22.98
2023-05-21T22:21:13.999Z,22.95
2023-05-21T22:23:40.822Z,22.93
2023-05-21T22:26:07.486Z,22.91
2023-05-21T22:28:33.987Z,22.87
2023-05-21T22:31:00.818Z,22.85
2023-05-21T22:33:27.287Z,22.84
2023-05-21T22:35:54.312Z,22.81
2023-05-21T22:38:21.997Z,22.77
2023-05-21T22:40:48.503Z,22.76
2023-05-21T22:43:14.990Z,22.73
2023-05-21T22:45:41.482Z,22.72
2023-05-21T22:48:09.128Z,22.71
2023-05-21T22:50:35.976Z,22.67
2023-05-21T22:53:02.715Z,22.64
2023-05-21T22:55:29.300Z,22.61
2023-05-21T22:57:55.818Z,22.61
2023-05-21T23:00:22.580Z,22.60
2023-05-21T23:02:51.387Z,22.54
2023-05-21T23:05:19.710Z,22.51
2023-05-21T23:07:46.261Z,22.50
2023-05-21T23:10:12.721Z,22.48
2023-05-21T23:12:39.247Z,22.46
2023-05-21T23:15:07.283Z,22.44
2023-05-21T23:17:33.733Z,22.42
2023-05-21T23:20:00.222Z,22.38
2023-05-21T23:22:26.707Z,22.36
2023-05-21T23:24:54.103Z,22.28
2023-05-21T23:27:20.680Z,22.32
2023-05-21T23:29:47.133Z,22.28
2023-05-21T23:32:13.787Z,22.26
2023-05-21T23:34:40.244Z,22.25
2023-05-21T23:37:06.712Z,22.22
2023-05-21T23:39:33.202Z,22.18
2023-05-21T23:41:59.858Z,22.15
2023-05-21T23:44:26.367Z,22.15
2023-05-21T23:46:52.850Z,22.10
2023-05-21T23:49:19.324Z,22.09
2023-05-21T23:51:46.809Z,22.07
2023-05-21T23:54:13.313Z,22.04
2023-05-21T23:56:39.737Z,22.01
2023-05-21T23:59:06.351Z,21.97
